Time;durP1;ratioP1;P1;durP2;ratioP2;P2;SDS_P1;SDS_P2;PMS_P1;PMS_P2;Temp;Humidity;BMP_temperature;BMP_pressure;BME280_temperature;BME280_humidity;BME280_pressure;Samples;Min_cycle;Max_cycle;Signal;HPM_P1;HPM_P2
2022/10/29 00:01:44;;;;;;;8.10;3.97;;;11.50;71.70;;;;;;4966638;28;46428;-68
2022/10/29 00:04:10;;;;;;;14.97;3.67;;;11.50;71.70;;;;;;4983678;28;46501;-68
2022/10/29 00:06:36;;;;;;;10.43;4.10;;;11.50;71.60;;;;;;4966984;28;46422;-68
2022/10/29 00:09:02;;;;;;;8.37;4.47;;;11.40;70.50;;;;;;4959516;28;46323;-68
2022/10/29 00:11:28;;;;;;;15.63;3.73;;;11.40;71.50;;;;;;4983206;28;46514;-68
2022/10/29 00:13:59;;;;;;;14.00;4.47;;;11.40;71.40;;;;;;4966909;28;48314;-68
2022/10/29 00:16:28;;;;;;;14.03;4.40;;;11.40;71.50;;;;;;4981922;28;46388;-68
2022/10/29 00:18:55;;;;;;;8.43;3.90;;;11.40;71.50;;;;;;4964847;28;46437;-69
2022/10/29 00:21:23;;;;;;;17.50;4.40;;;11.30;70.50;;;;;;4981310;28;46408;-68
2022/10/29 00:23:50;;;;;;;11.60;4.47;;;11.20;71.70;;;;;;4981650;28;46685;-68
2022/10/29 00:26:17;;;;;;;14.47;3.80;;;11.30;71.80;;;;;;4964691;28;46306;-68
2022/10/29 00:28:43;;;;;;;12.30;5.00;;;11.30;71.70;;;;;;4981453;28;46442;-68
2022/10/29 00:31:12;;;;;;;8.20;4.30;;;11.30;70.50;;;;;;4965844;28;46492;-69
2022/10/29 00:33:38;;;;;;;8.53;3.87;;;11.30;71.60;;;;;;4981523;28;46765;-68
2022/10/29 00:36:06;;;;;;;11.53;4.47;;;11.30;71.40;;;;;;4966507;28;46470;-68
2022/10/29 00:38:33;;;;;;;12.37;4.50;;;11.30;71.20;;;;;;4983838;28;46607;-68
2022/10/29 00:40:59;;;;;;;10.77;4.40;;;11.30;70.20;;;;;;4965625;28;45925;-68
2022/10/29 00:43:26;;;;;;;7.10;4.00;;;11.30;71.30;;;;;;4981220;28;47036;-69
2022/10/29 00:45:58;;;;;;;8.57;3.83;;;11.30;71.20;;;;;;4965572;28;46625;-68
2022/10/29 00:48:27;;;;;;;16.03;4.57;;;11.30;71.10;;;;;;4980337;28;46453;-68
2022/10/29 00:50:53;;;;;;;9.30;4.73;;;11.30;70.10;;;;;;4982239;28;46508;-68
2022/10/29 00:53:23;;;;;;;10.50;4.27;;;11.30;71.10;;;;;;4982278;28;47447;-68
2022/10/29 00:55:50;;;;;;;11.40;4.40;;;11.20;71.00;;;;;;4965898;28;46369;-68
2022/10/29 00:58:15;;;;;;;8.13;4.20;;;11.30;71.10;;;;;;4965406;28;46514;-69
2022/10/29 01:00:42;;;;;;;11.93;4.50;;;11.30;69.90;;;;;;4980385;28;46643;-68
2022/10/29 01:03:08;;;;;;;13.70;4.60;;;11.30;71.00;;;;;;4964131;28;48888;-68
2022/10/29 01:05:35;;;;;;;9.50;4.23;;;11.30;70.80;;;;;;4980507;28;46422;-69
2022/10/29 01:08:02;;;;;;;14.03;4.10;;;11.30;70.90;;;;;;4964550;28;45784;-69
2022/10/29 01:10:58;;;;;;;12.53;3.67;;;11.30;70.90;;;;;;4963877;28;46285;-69
2022/10/29 01:13:42;;;;;;;8.00;3.90;;;11.40;70.80;;;;;;4963895;28;47725;-70
2022/10/29 01:16:28;;;;;;;11.47;3.70;;;11.40;70.50;;;;;;4963915;28;46512;-70
2022/10/29 01:19:35;;;;;;;7.63;3.33;;;11.40;70.30;;;;;;4966064;28;46412;-68
2022/10/29 01:22:24;;;;;;;10.10;4.30;;;11.50;70.30;;;;;;4907905;28;46705;-69
2022/10/29 01:25:09;;;;;;;11.33;4.37;;;11.50;70.00;;;;;;4959519;28;46797;-69
2022/10/29 01:28:07;;;;;;;16.00;4.10;;;11.50;70.00;;;;;;4979504;28;45847;-70
2022/10/29 01:30:59;;;;;;;11.70;4.00;;;11.50;68.90;;;;;;4958845;28;46382;-71
2022/10/29 01:33:49;;;;;;;7.40;3.37;;;11.50;69.90;;;;;;4966140;28;46341;-68
2022/10/29 01:36:24;;;;;;;13.67;3.77;;;11.50;69.90;;;;;;4968389;28;47459;-69
2022/10/29 01:39:02;;;;;;;10.77;3.50;;;11.50;70.00;;;;;;4964662;28;46493;-70
2022/10/29 01:41:42;;;;;;;7.80;3.53;;;11.50;70.10;;;;;;4965856;28;46384;-69
2022/10/29 01:44:28;;;;;;;7.10;3.37;;;11.40;70.00;;;;;;4969392;28;46378;-69
2022/10/29 01:47:03;;;;;;;8.80;2.90;;;11.40;70.10;;;;;;4955466;28;48202;-69
2022/10/29 01:49:37;;;;;;;9.43;3.10;;;11.10;69.70;;;;;;4963970;28;46617;-70
2022/10/29 01:52:06;;;;;;;12.43;3.27;;;11.10;70.70;;;;;;4983854;28;46340;-68
2022/10/29 01:54:31;;;;;;;9.80;3.47;;;11.10;70.60;;;;;;4981948;28;46626;-69
2022/10/29 01:56:58;;;;;;;9.93;2.80;;;11.00;70.50;;;;;;4981348;28;46606;-67
2022/10/29 01:59:28;;;;;;;21.20;3.83;;;11.00;70.50;;;;;;4962950;28;46365;-68
2022/10/29 02:02:32;;;;;;;10.57;2.70;;;11.10;70.50;;;;;;4964740;28;46480;-67
2022/10/29 02:05:07;;;;;;;12.20;3.10;;;11.10;70.20;;;;;;4982378;28;45881;-68
2022/10/29 02:07:48;;;;;;;12.60;3.40;;;11.10;70.30;;;;;;4979030;28;48001;-67
2022/10/29 02:10:39;;;;;;;12.73;3.00;;;11.10;68.90;;;;;;4980414;28;46518;-68
2022/10/29 02:13:07;;;;;;;15.20;3.43;;;11.10;69.80;;;;;;4966168;28;46349;-67
2022/10/29 02:15:38;;;;;;;6.90;3.20;;;11.10;69.60;;;;;;4964341;28;46500;-68
2022/10/29 02:18:06;;;;;;;9.50;3.37;;;11.20;69.60;;;;;;4981892;28;46685;-67
2022/10/29 02:20:32;;;;;;;11.00;3.50;;;11.20;69.60;;;;;;4964224;28;46373;-67
2022/10/29 02:22:58;;;;;;;9.07;3.20;;;11.30;69.70;;;;;;4985327;28;46543;-68
2022/10/29 02:25:24;;;;;;;8.57;3.10;;;11.20;69.80;;;;;;4980298;28;46445;-67
2022/10/29 02:27:50;;;;;;;9.60;2.97;;;11.20;70.00;;;;;;4982449;28;46353;-68
2022/10/29 02:30:16;;;;;;;16.20;3.73;;;11.10;70.40;;;;;;4964208;28;46418;-67
2022/10/29 02:32:42;;;;;;;14.03;3.80;;;11.00;70.50;;;;;;4981634;28;46384;-67
2022/10/29 02:35:09;;;;;;;13.07;3.97;;;11.00;70.50;;;;;;4958119;28;46438;-67
2022/10/29 02:37:35;;;;;;;9.30;3.23;;;11.00;70.50;;;;;;4963772;28;47646;-67
2022/10/29 02:40:01;;;;;;;17.37;3.30;;;11.00;70.50;;;;;;4962984;28;46432;-67
2022/10/29 02:42:26;;;;;;;7.37;3.00;;;11.00;70.40;;;;;;4964428;28;45775;-67
2022/10/29 02:44:52;;;;;;;7.60;3.27;;;11.00;70.30;;;;;;4979834;28;45935;-67
2022/10/29 02:47:18;;;;;;;11.40;3.43;;;11.10;70.20;;;;;;4963228;28;47712;-67
2022/10/29 02:49:43;;;;;;;6.30;3.27;;;11.10;70.20;;;;;;4980679;28;47172;-67
2022/10/29 02:52:09;;;;;;;10.67;3.93;;;11.10;70.10;;;;;;4963446;28;46416;-67
2022/10/29 02:54:35;;;;;;;11.60;3.63;;;11.10;70.00;;;;;;4964021;28;46542;-67
2022/10/29 02:57:00;;;;;;;9.23;3.20;;;11.10;70.10;;;;;;4962560;28;49094;-67
2022/10/29 02:59:26;;;;;;;22.73;4.17;;;11.00;68.90;;;;;;4964172;28;46406;-67
2022/10/29 03:01:52;;;;;;;13.00;3.87;;;11.00;70.10;;;;;;4980044;28;46405;-67
2022/10/29 03:04:17;;;;;;;11.13;3.10;;;11.00;70.00;;;;;;4966677;28;46498;-67
2022/10/29 03:06:43;;;;;;;10.47;3.80;;;11.00;70.10;;;;;;4964025;28;48216;-67
2022/10/29 03:09:09;;;;;;;10.20;3.27;;;11.00;69.10;;;;;;4982395;28;46946;-67
2022/10/29 03:11:34;;;;;;;8.63;3.30;;;10.90;70.10;;;;;;4964293;28;46398;-67
2022/10/29 03:14:00;;;;;;;6.17;3.37;;;11.00;70.00;;;;;;4982989;28;46530;-67
2022/10/29 03:16:26;;;;;;;12.93;3.57;;;11.00;69.80;;;;;;4979889;28;46633;-67
2022/10/29 03:18:51;;;;;;;13.43;4.03;;;11.10;69.70;;;;;;4979493;28;46449;-67
2022/10/29 03:21:17;;;;;;;10.57;3.83;;;11.10;68.30;;;;;;4981153;28;46639;-67
2022/10/29 03:23:43;;;;;;;9.20;3.57;;;11.20;69.20;;;;;;4963449;28;46340;-67
2022/10/29 03:26:11;;;;;;;11.80;3.10;;;11.30;68.90;;;;;;4980575;28;49161;-68
2022/10/29 03:28:37;;;;;;;9.70;3.73;;;11.40;68.60;;;;;;4979417;28;46465;-67
2022/10/29 03:31:03;;;;;;;17.27;3.40;;;11.40;67.40;;;;;;4979273;28;46558;-67
2022/10/29 03:33:29;;;;;;;6.13;3.23;;;11.40;68.50;;;;;;4962784;28;46025;-68
2022/10/29 03:35:59;;;;;;;10.33;4.13;;;11.40;68.70;;;;;;4980900;28;47612;-67
2022/10/29 03:38:25;;;;;;;14.63;2.90;;;11.50;68.80;;;;;;4962477;28;46603;-68
2022/10/29 03:40:51;;;;;;;9.23;3.07;;;11.50;67.80;;;;;;4978561;28;46400;-67
2022/10/29 03:43:17;;;;;;;13.10;3.77;;;11.50;68.80;;;;;;4980453;28;46495;-67
2022/10/29 03:45:43;;;;;;;13.13;3.73;;;11.50;68.80;;;;;;4963560;28;47727;-68
2022/10/29 03:48:09;;;;;;;11.23;2.93;;;11.50;68.80;;;;;;4962146;28;46373;-68
2022/10/29 03:50:35;;;;;;;12.70;3.73;;;11.40;68.00;;;;;;4964412;28;45889;-67
2022/10/29 03:53:00;;;;;;;14.97;3.90;;;11.40;69.20;;;;;;4978403;28;46057;-68
2022/10/29 03:55:29;;;;;;;13.50;3.63;;;11.40;69.30;;;;;;4964052;28;49218;-68
2022/10/29 03:57:55;;;;;;;19.03;4.27;;;11.40;69.40;;;;;;4966396;28;46458;-67
2022/10/29 04:00:20;;;;;;;11.97;4.20;;;11.40;68.10;;;;;;4966924;28;46405;-67
2022/10/29 04:02:46;;;;;;;10.03;3.87;;;11.40;69.30;;;;;;4981151;28;46603;-67
2022/10/29 04:05:12;;;;;;;17.27;4.23;;;11.50;69.20;;;;;;4966221;28;47840;-67
2022/10/29 04:07:37;;;;;;;11.97;3.43;;;11.50;69.00;;;;;;4982223;28;46415;-68
2022/10/29 04:10:03;;;;;;;13.03;4.10;;;11.60;68.90;;;;;;4963883;28;46419;-68
2022/10/29 04:12:29;;;;;;;12.03;3.40;;;11.70;68.70;;;;;;4983797;28;46625;-68
2022/10/29 04:14:55;;;;;;;17.70;4.07;;;11.80;68.40;;;;;;4983599;28;48125;-67
2022/10/29 04:17:20;;;;;;;11.37;4.53;;;11.90;68.20;;;;;;4982215;28;46924;-68
2022/10/29 04:19:46;;;;;;;10.60;3.00;;;12.00;68.10;;;;;;4968467;28;45841;-68
2022/10/29 04:22:12;;;;;;;16.50;3.10;;;12.00;68.00;;;;;;4985217;28;46344;-67
2022/10/29 04:24:37;;;;;;;14.03;4.23;;;12.10;68.00;;;;;;4967493;28;48938;-67
2022/10/29 04:27:03;;;;;;;12.53;3.20;;;12.10;67.80;;;;;;4964603;28;46438;-68
2022/10/29 04:29:29;;;;;;;19.17;3.40;;;12.10;67.80;;;;;;4983522;28;46746;-68
2022/10/29 04:31:54;;;;;;;20.60;4.10;;;12.10;67.60;;;;;;4982006;28;46544;-68
2022/10/29 04:34:20;;;;;;;21.73;3.80;;;12.10;67.60;;;;;;4966860;28;47868;-68
2022/10/29 04:36:46;;;;;;;15.27;3.57;;;12.10;67.50;;;;;;4983811;28;46530;-68
2022/10/29 04:39:11;;;;;;;10.60;2.80;;;12.00;66.50;;;;;;4960841;28;46537;-68
2022/10/29 04:41:37;;;;;;;13.97;3.40;;;12.00;67.50;;;;;;4972220;28;46471;-68
2022/10/29 04:44:03;;;;;;;21.10;10.27;;;12.00;67.60;;;;;;4982015;28;48080;-68
2022/10/29 04:46:28;;;;;;;38.47;18.97;;;12.00;67.60;;;;;;4981957;28;46426;-68
2022/10/29 04:48:54;;;;;;;40.23;18.07;;;12.00;67.70;;;;;;4986441;28;46309;-68
2022/10/29 04:51:22;;;;;;;26.03;8.23;;;12.00;66.60;;;;;;4968329;28;46349;-68
2022/10/29 04:53:48;;;;;;;17.27;6.30;;;12.00;67.60;;;;;;4984746;28;46455;-68
2022/10/29 04:56:13;;;;;;;11.60;3.67;;;12.10;67.50;;;;;;4984593;28;46270;-68
2022/10/29 04:58:39;;;;;;;16.20;5.50;;;12.00;67.20;;;;;;4969059;28;45788;-68
2022/10/29 05:01:05;;;;;;;11.70;3.87;;;12.00;66.00;;;;;;4966663;28;46661;-68
2022/10/29 05:03:31;;;;;;;15.03;4.77;;;12.00;67.20;;;;;;4965932;28;48915;-68
2022/10/29 05:05:58;;;;;;;15.83;4.30;;;12.00;67.10;;;;;;4966744;28;46421;-68
2022/10/29 05:08:23;;;;;;;11.97;3.80;;;12.00;66.90;;;;;;4982210;28;46397;-68
2022/10/29 05:10:49;;;;;;;26.03;3.80;;;12.00;65.60;;;;;;4967524;28;46379;-68
2022/10/29 05:13:15;;;;;;;9.53;3.90;;;12.10;66.60;;;;;;4966778;28;46574;-68
2022/10/29 05:15:40;;;;;;;14.33;3.23;;;12.10;66.40;;;;;;4979819;28;46475;-68
2022/10/29 05:18:08;;;;;;;15.77;5.00;;;12.20;66.40;;;;;;4966053;28;46406;-68
2022/10/29 05:20:35;;;;;;;15.57;3.70;;;12.30;65.10;;;;;;4978636;28;46986;-68
2022/10/29 05:23:03;;;;;;;12.43;3.73;;;12.30;66.40;;;;;;4966066;28;48356;-67
2022/10/29 05:25:30;;;;;;;9.33;3.90;;;12.30;66.50;;;;;;4980936;28;46388;-68
2022/10/29 05:28:04;;;;;;;10.93;4.40;;;12.30;66.40;;;;;;4964768;28;46335;-68
2022/10/29 05:30:30;;;;;;;16.40;4.57;;;12.30;65.10;;;;;;4981790;28;46803;-68
2022/10/29 05:32:56;;;;;;;13.27;4.07;;;12.20;66.20;;;;;;4982471;28;48316;-68
2022/10/29 05:35:22;;;;;;;15.87;4.10;;;12.20;66.40;;;;;;4957856;28;46564;-68
2022/10/29 05:37:54;;;;;;;16.53;4.67;;;12.30;66.40;;;;;;4982886;28;46350;-68
2022/10/29 05:40:21;;;;;;;13.70;4.53;;;12.30;66.00;;;;;;4980560;28;46504;-68
2022/10/29 05:42:47;;;;;;;17.93;5.87;;;12.30;66.10;;;;;;4964907;28;48178;-68
2022/10/29 05:45:13;;;;;;;20.37;4.57;;;12.30;66.10;;;;;;4963336;28;46408;-68
2022/10/29 05:47:39;;;;;;;11.20;4.23;;;12.30;65.90;;;;;;4981243;28;45969;-68
2022/10/29 05:50:05;;;;;;;16.90;5.73;;;12.40;66.10;;;;;;4963589;28;46005;-68
2022/10/29 05:52:30;;;;;;;19.70;5.30;;;12.40;66.10;;;;;;4981038;28;47730;-68
2022/10/29 05:54:56;;;;;;;14.60;5.00;;;12.40;65.90;;;;;;4980916;28;46448;-68
2022/10/29 05:57:22;;;;;;;19.00;6.37;;;12.50;65.90;;;;;;4963911;28;46463;-68
2022/10/29 05:59:47;;;;;;;12.50;4.57;;;12.50;64.80;;;;;;4981033;28;46639;-68
2022/10/29 06:02:13;;;;;;;19.97;6.93;;;12.50;65.70;;;;;;4980065;28;47878;-68
2022/10/29 06:04:39;;;;;;;13.30;6.47;;;12.60;65.80;;;;;;4982687;28;46464;-68
2022/10/29 06:07:04;;;;;;;17.03;5.87;;;12.60;65.80;;;;;;4962611;28;46443;-68
2022/10/29 06:09:30;;;;;;;12.73;3.47;;;12.60;65.80;;;;;;4981174;28;46294;-68
2022/10/29 06:11:56;;;;;;;11.67;3.20;;;12.60;65.80;;;;;;4962925;28;47724;-68
2022/10/29 06:14:23;;;;;;;7.97;3.57;;;12.60;65.80;;;;;;4981436;28;46416;-68
2022/10/29 06:16:49;;;;;;;17.33;4.40;;;12.60;65.80;;;;;;4966466;28;46421;-67
2022/10/29 06:19:14;;;;;;;10.60;3.80;;;12.70;64.70;;;;;;4965182;28;46784;-68
2022/10/29 06:21:40;;;;;;;14.23;4.50;;;12.70;65.60;;;;;;4980672;28;46499;-68
2022/10/29 06:24:06;;;;;;;10.27;4.27;;;12.80;65.60;;;;;;4981290;28;46284;-68
2022/10/29 06:26:32;;;;;;;16.40;3.77;;;12.80;65.40;;;;;;4965697;28;46457;-68
2022/10/29 06:28:58;;;;;;;16.57;3.50;;;12.80;65.60;;;;;;4983986;28;46434;-68
2022/10/29 06:31:24;;;;;;;12.40;3.37;;;12.80;64.60;;;;;;4964518;28;48333;-68
2022/10/29 06:33:50;;;;;;;18.33;4.30;;;12.80;65.80;;;;;;4980596;28;46439;-68
2022/10/29 06:36:16;;;;;;;16.37;4.47;;;12.80;65.80;;;;;;4978664;28;46404;-68
2022/10/29 06:38:42;;;;;;;15.80;4.33;;;12.90;65.80;;;;;;4965058;28;46349;-68
2022/10/29 06:41:08;;;;;;;11.43;3.27;;;12.90;64.60;;;;;;4980110;28;49208;-68
2022/10/29 06:43:34;;;;;;;12.63;3.83;;;13.00;65.60;;;;;;4960744;28;46552;-68
2022/10/29 06:46:00;;;;;;;14.83;4.53;;;13.10;65.40;;;;;;4962794;28;46377;-68
2022/10/29 06:48:25;;;;;;;14.77;3.40;;;13.10;65.30;;;;;;4980975;28;46619;-68
2022/10/29 06:50:51;;;;;;;11.67;3.20;;;13.20;64.30;;;;;;4979770;28;48137;-68
2022/10/29 06:53:17;;;;;;;27.83;4.00;;;13.10;65.20;;;;;;4973177;28;46404;-68
2022/10/29 06:55:43;;;;;;;10.33;3.60;;;13.20;65.30;;;;;;4963124;28;46337;-68
2022/10/29 06:58:14;;;;;;;19.00;4.77;;;13.30;65.30;;;;;;4980945;28;46352;-68
2022/10/29 07:00:40;;;;;;;14.70;5.93;;;13.30;64.00;;;;;;4979850;28;47498;-68
2022/10/29 07:03:07;;;;;;;15.60;6.30;;;13.40;64.90;;;;;;4963128;28;45812;-68
2022/10/29 07:05:35;;;;;;;16.03;6.10;;;13.50;64.70;;;;;;4957255;28;46560;-68
2022/10/29 07:08:01;;;;;;;17.83;5.90;;;13.60;64.70;;;;;;4981616;28;46101;-68
2022/10/29 07:10:29;;;;;;;12.03;5.40;;;13.80;63.50;;;;;;4981159;28;46333;-68
2022/10/29 07:12:55;;;;;;;23.10;4.93;;;13.80;64.40;;;;;;4964083;28;46409;-68
2022/10/29 07:15:21;;;;;;;13.67;4.80;;;13.90;64.30;;;;;;4979051;28;46658;-68
2022/10/29 07:18:00;;;;;;;12.67;4.00;;;14.00;64.30;;;;;;4979228;28;46458;-68
2022/10/29 07:20:28;;;;;;;15.80;3.63;;;14.10;63.00;;;;;;4962824;28;47929;-70
2022/10/29 07:22:56;;;;;;;12.00;3.17;;;14.10;64.10;;;;;;4984951;28;46384;-68
2022/10/29 07:25:22;;;;;;;13.93;4.57;;;14.10;64.00;;;;;;4963599;28;46367;-68
2022/10/29 07:27:48;;;;;;;25.77;8.50;;;14.20;64.10;;;;;;4964745;28;46014;-68
2022/10/29 07:30:15;;;;;;;30.20;8.63;;;14.30;64.20;;;;;;4978780;28;46718;-68
2022/10/29 07:32:40;;;;;;;36.17;10.77;;;14.30;63.00;;;;;;4965833;28;46499;-68
2022/10/29 07:35:07;;;;;;;24.50;9.60;;;14.40;64.10;;;;;;4968925;28;46417;-68
2022/10/29 07:37:32;;;;;;;37.90;20.70;;;14.40;64.20;;;;;;4982184;28;46294;-68
2022/10/29 07:39:58;;;;;;;26.87;12.03;;;14.50;64.40;;;;;;4967138;28;49220;-68
2022/10/29 07:42:24;;;;;;;16.53;6.90;;;14.60;64.30;;;;;;4984192;28;46403;-68
2022/10/29 07:44:49;;;;;;;17.03;5.97;;;14.70;64.00;;;;;;4983162;28;46444;-68
2022/10/29 07:47:15;;;;;;;23.03;4.83;;;14.90;63.60;;;;;;4967329;28;46489;-68
2022/10/29 07:49:40;;;;;;;15.73;4.47;;;15.10;61.80;;;;;;4981511;28;46502;-68
2022/10/29 07:52:06;;;;;;;17.90;5.20;;;15.10;61.70;;;;;;4966461;28;46662;-68
2022/10/29 07:54:32;;;;;;;8.47;3.93;;;15.20;62.50;;;;;;4966477;28;46670;-68
2022/10/29 07:56:57;;;;;;;13.13;3.63;;;15.40;62.40;;;;;;4967297;28;46549;-68
2022/10/29 07:59:23;;;;;;;17.70;4.80;;;15.60;61.00;;;;;;4984493;28;47895;-68
2022/10/29 08:01:49;;;;;;;19.00;6.43;;;15.60;61.90;;;;;;4983338;28;45875;-68
2022/10/29 08:04:14;;;;;;;22.63;8.67;;;15.80;61.70;;;;;;4983583;28;46372;-68
2022/10/29 08:06:40;;;;;;;19.73;9.93;;;15.90;61.50;;;;;;4983200;28;46626;-68
2022/10/29 08:09:06;;;;;;;18.20;5.80;;;16.10;60.00;;;;;;4982356;28;47951;-68
2022/10/29 08:11:32;;;;;;;21.73;4.53;;;16.10;60.80;;;;;;4965435;28;46054;-68
2022/10/29 08:13:58;;;;;;;12.23;4.10;;;16.20;60.70;;;;;;4967574;28;46465;-68
2022/10/29 08:16:24;;;;;;;16.50;4.80;;;16.20;60.40;;;;;;4982225;28;46406;-68
2022/10/29 08:18:50;;;;;;;10.80;3.33;;;16.20;60.40;;;;;;4983532;28;47293;-68
2022/10/29 08:21:16;;;;;;;17.77;3.80;;;16.20;59.30;;;;;;4964226;28;46487;-68
2022/10/29 08:23:42;;;;;;;21.37;4.53;;;16.30;60.40;;;;;;4967194;28;46453;-68
2022/10/29 08:26:08;;;;;;;19.50;6.03;;;16.40;60.30;;;;;;4981978;28;46547;-68
2022/10/29 08:28:34;;;;;;;30.40;6.37;;;16.40;60.10;;;;;;4966289;28;46286;-68
2022/10/29 08:31:00;;;;;;;27.90;6.93;;;16.60;58.60;;;;;;4966235;28;46322;-69
2022/10/29 08:33:25;;;;;;;20.07;5.33;;;16.70;59.60;;;;;;4980295;28;46321;-68
2022/10/29 08:35:53;;;;;;;26.30;6.37;;;16.90;59.20;;;;;;4982372;28;46487;-68
2022/10/29 08:38:22;;;;;;;20.77;5.80;;;17.00;58.20;;;;;;4981576;28;48961;-68
2022/10/29 08:41:24;;;;;;;27.00;7.00;;;17.30;57.30;;;;;;4965518;28;46477;-68
2022/10/29 08:44:24;;;;;;;37.43;9.97;;;17.60;57.60;;;;;;4981556;28;46388;-68
2022/10/29 08:47:15;;;;;;;38.93;8.70;;;17.90;56.40;;;;;;4965572;28;46580;-68
2022/10/29 08:49:50;;;;;;;23.27;5.57;;;18.30;55.50;;;;;;4946774;28;48269;-68
2022/10/29 08:52:27;;;;;;;16.40;3.77;;;18.40;55.00;;;;;;4966167;28;46449;-68
2022/10/29 08:55:23;;;;;;;16.50;4.20;;;18.50;54.80;;;;;;4963615;28;46352;-68
2022/10/29 08:57:56;;;;;;;26.60;4.87;;;18.60;54.60;;;;;;4960957;28;46357;-68
2022/10/29 09:00:35;;;;;;;14.83;4.13;;;18.70;54.40;;;;;;4968153;28;47503;-68
2022/10/29 09:03:01;;;;;;;11.23;3.13;;;18.90;53.90;;;;;;4962458;28;46477;-68
2022/10/29 09:05:35;;;;;;;22.00;4.20;;;18.90;54.10;;;;;;4965491;28;46419;-68
2022/10/29 09:08:36;;;;;;;13.60;3.30;;;18.90;53.80;;;;;;4982341;28;46408;-68
2022/10/29 09:11:37;;;;;;;15.20;4.00;;;18.90;52.60;;;;;;4964367;28;49083;-68
2022/10/29 09:14:21;;;;;;;13.80;3.57;;;18.90;53.70;;;;;;4960004;28;45854;-68
2022/10/29 09:17:02;;;;;;;18.40;4.13;;;19.00;53.80;;;;;;4966028;28;46412;-68
2022/10/29 09:20:15;;;;;;;20.93;4.60;;;19.00;53.30;;;;;;4982729;28;46324;-68
2022/10/29 09:22:53;;;;;;;19.90;4.70;;;19.00;53.20;;;;;;4886836;29;48070;-68
2022/10/29 09:25:57;;;;;;;14.23;3.60;;;19.10;53.00;;;;;;4954357;28;46416;-68
2022/10/29 09:28:48;;;;;;;14.40;4.10;;;19.10;52.70;;;;;;4982442;28;46437;-68
2022/10/29 09:31:34;;;;;;;16.03;4.03;;;19.20;51.60;;;;;;4981112;28;46613;-68
2022/10/29 09:34:11;;;;;;;12.47;3.70;;;19.30;52.60;;;;;;4964231;28;46291;-68
2022/10/29 09:36:36;;;;;;;11.50;3.73;;;19.30;52.50;;;;;;4963244;28;46452;-68
2022/10/29 09:39:13;;;;;;;17.23;4.07;;;19.40;51.10;;;;;;4980283;28;46455;-68
2022/10/29 09:41:39;;;;;;;21.00;4.10;;;19.40;51.90;;;;;;4980237;28;46454;-68
2022/10/29 09:44:14;;;;;;;15.03;3.50;;;19.50;51.80;;;;;;4961618;28;48152;-68
2022/10/29 09:46:50;;;;;;;16.93;4.17;;;19.60;51.10;;;;;;4981512;28;46387;-68
2022/10/29 09:49:25;;;;;;;16.50;4.60;;;19.80;49.60;;;;;;4963495;28;46468;-68
2022/10/29 09:51:53;;;;;;;16.67;3.73;;;19.80;50.10;;;;;;4964728;28;46569;-68
2022/10/29 09:54:19;;;;;;;11.20;3.00;;;19.90;49.90;;;;;;4963647;28;47837;-68
2022/10/29 09:56:46;;;;;;;17.43;4.10;;;20.10;49.80;;;;;;4964722;28;46140;-68
2022/10/29 09:59:15;;;;;;;16.00;3.13;;;20.30;47.90;;;;;;4983857;28;46456;-68
2022/10/29 10:01:40;;;;;;;22.77;3.73;;;20.30;48.70;;;;;;4965169;28;46444;-68
2022/10/29 10:04:18;;;;;;;18.83;3.90;;;20.50;48.10;;;;;;4964293;28;48161;-68
2022/10/29 10:07:09;;;;;;;14.53;3.47;;;20.60;48.20;;;;;;4964084;28;46772;-68
2022/10/29 10:10:00;;;;;;;19.30;3.80;;;20.70;47.70;;;;;;4983541;28;46328;-69
2022/10/29 10:12:47;;;;;;;13.53;3.53;;;20.80;47.40;;;;;;4983391;28;46486;-68
2022/10/29 10:15:29;;;;;;;16.60;3.97;;;20.70;48.00;;;;;;4964308;28;47884;-68
2022/10/29 10:18:04;;;;;;;15.60;4.20;;;20.60;48.20;;;;;;4964812;28;45875;-68
2022/10/29 10:20:44;;;;;;;19.63;3.97;;;20.60;47.10;;;;;;4980534;28;45914;-68
2022/10/29 10:23:20;;;;;;;11.00;3.17;;;20.60;48.20;;;;;;4982274;28;46340;-68
2022/10/29 10:25:46;;;;;;;23.27;3.70;;;20.70;48.30;;;;;;4965165;28;48259;-68
2022/10/29 10:28:29;;;;;;;18.77;3.60;;;20.70;48.30;;;;;;4962851;28;46496;-68
2022/10/29 10:31:03;;;;;;;23.03;5.07;;;20.80;47.30;;;;;;4965107;28;45861;-68
2022/10/29 10:33:31;;;;;;;13.37;3.40;;;20.80;48.40;;;;;;4980237;28;46354;-68
2022/10/29 10:36:09;;;;;;;18.37;3.63;;;20.80;48.40;;;;;;4980390;28;47737;-68
2022/10/29 10:38:48;;;;;;;21.33;3.77;;;20.90;47.90;;;;;;4979827;28;46371;-68
2022/10/29 10:41:15;;;;;;;14.70;3.67;;;21.00;46.70;;;;;;4980008;28;46413;-68
2022/10/29 10:43:44;;;;;;;20.20;3.43;;;21.00;47.80;;;;;;4983593;28;46445;-68
2022/10/29 10:46:21;;;;;;;12.97;3.37;;;21.20;47.70;;;;;;4963035;28;47916;-68
2022/10/29 10:48:57;;;;;;;10.80;3.27;;;21.30;47.20;;;;;;4964316;28;46412;-68
2022/10/29 10:51:27;;;;;;;16.60;3.50;;;21.40;45.50;;;;;;4961679;28;45759;-68
2022/10/29 10:53:53;;;;;;;25.50;4.43;;;21.50;46.60;;;;;;4979888;28;45992;-68
2022/10/29 10:56:21;;;;;;;14.67;3.27;;;21.50;46.20;;;;;;4981701;28;46368;-68
2022/10/29 10:58:58;;;;;;;17.27;3.53;;;21.60;45.90;;;;;;4957124;28;46725;-68
2022/10/29 11:01:31;;;;;;;19.93;3.80;;;21.70;44.00;;;;;;4964291;28;46356;-68
2022/10/29 11:04:11;;;;;;;15.90;3.33;;;21.80;45.00;;;;;;4962203;28;46458;-68
2022/10/29 11:06:40;;;;;;;17.50;3.50;;;21.90;44.40;;;;;;4986563;28;47225;-71
2022/10/29 11:09:28;;;;;;;24.03;4.10;;;22.00;42.90;;;;;;4969527;28;46571;-69
2022/10/29 11:12:33;;;;;;;15.00;3.73;;;22.00;43.50;;;;;;4986585;28;46388;-68
2022/10/29 11:15:07;;;;;;;23.43;3.60;;;22.10;43.30;;;;;;4970051;28;46370;-68
2022/10/29 11:17:52;;;;;;;15.00;3.70;;;22.10;43.10;;;;;;4987551;28;46470;-69
2022/10/29 11:20:24;;;;;;;10.20;3.10;;;22.10;42.40;;;;;;4959479;28;46522;-69
2022/10/29 11:23:16;;;;;;;24.03;3.60;;;22.10;43.50;;;;;;4968318;28;46369;-68
2022/10/29 11:25:49;;;;;;;18.13;3.30;;;22.10;43.30;;;;;;4960440;28;46499;-68
2022/10/29 11:28:30;;;;;;;11.10;3.80;;;22.20;43.20;;;;;;4985873;28;46557;-68
2022/10/29 11:31:19;;;;;;;15.50;3.67;;;22.20;41.50;;;;;;4985990;28;46891;-69
2022/10/29 11:34:41;;;;;;;14.87;3.67;;;22.30;42.30;;;;;;4918736;28;46455;-68
2022/10/29 11:37:44;;;;;;;17.57;3.40;;;22.40;41.70;;;;;;4869906;29;46903;-68
2022/10/29 11:40:22;;;;;;;16.90;3.60;;;22.70;40.70;;;;;;4867193;29;48337;-69
2022/10/29 11:42:48;;;;;;;9.23;3.07;;;22.60;41.50;;;;;;4947839;28;45940;-68
2022/10/29 11:45:33;;;;;;;18.77;4.10;;;22.60;41.70;;;;;;4965249;28;46424;-70
2022/10/29 11:48:38;;;;;;;17.33;3.60;;;22.70;41.40;;;;;;4969002;28;46452;-69
2022/10/29 11:51:28;;;;;;;24.77;4.03;;;22.80;39.40;;;;;;4980039;28;47738;-69
2022/10/29 11:53:58;;;;;;;19.50;3.90;;;22.90;40.30;;;;;;4970009;28;46363;-69
2022/10/29 11:56:46;;;;;;;12.07;3.80;;;22.90;40.40;;;;;;4964908;28;45837;-68
2022/10/29 11:59:40;;;;;;;21.80;4.50;;;23.00;39.60;;;;;;4982183;28;46395;-69
2022/10/29 12:02:34;;;;;;;31.37;8.80;;;23.00;40.50;;;;;;4966705;28;48114;-69
2022/10/29 12:05:23;;;;;;;21.40;4.10;;;23.10;40.40;;;;;;4982845;28;46444;-69
2022/10/29 12:08:20;;;;;;;14.20;3.93;;;23.10;40.40;;;;;;4967480;28;46369;-69
2022/10/29 12:11:09;;;;;;;18.70;3.30;;;23.10;39.40;;;;;;4966154;28;46508;-69
2022/10/29 12:13:40;;;;;;;18.33;3.93;;;23.10;40.30;;;;;;4966845;28;47965;-69
2022/10/29 12:16:06;;;;;;;24.03;4.90;;;23.20;40.40;;;;;;4982489;28;46389;-69
2022/10/29 12:18:49;;;;;;;26.57;3.60;;;23.20;40.40;;;;;;4968826;28;46336;-69
2022/10/29 12:21:35;;;;;;;13.40;3.50;;;23.20;38.60;;;;;;4965719;28;45889;-68
2022/10/29 12:24:16;;;;;;;17.40;3.30;;;23.30;40.00;;;;;;4965868;28;48468;-68
2022/10/29 12:27:13;;;;;;;18.63;4.60;;;23.30;39.80;;;;;;4966004;28;46473;-68
2022/10/29 12:29:58;;;;;;;11.97;3.53;;;23.40;37.90;;;;;;4965105;28;46317;-68
2022/10/29 12:32:27;;;;;;;13.83;3.17;;;23.40;38.20;;;;;;4962829;28;46505;-68
2022/10/29 12:35:10;;;;;;;11.50;3.20;;;23.50;38.40;;;;;;4967035;28;47759;-68
2022/10/29 12:38:00;;;;;;;21.10;3.87;;;23.50;37.60;;;;;;4965517;28;46345;-68
2022/10/29 12:40:41;;;;;;;15.37;3.80;;;23.50;36.80;;;;;;4965752;28;46362;-68
2022/10/29 12:43:21;;;;;;;26.77;11.80;;;23.50;37.30;;;;;;4957761;28;46573;-68
2022/10/29 12:45:58;;;;;;;17.03;4.17;;;23.50;37.20;;;;;;4980404;28;48154;-68
2022/10/29 12:48:31;;;;;;;13.37;3.50;;;23.50;37.20;;;;;;4981926;28;46206;-69
2022/10/29 12:51:09;;;;;;;21.10;3.17;;;23.50;36.10;;;;;;4982171;28;46433;-68
2022/10/29 12:53:54;;;;;;;18.77;4.20;;;23.50;36.60;;;;;;4965735;28;46490;-68
2022/10/29 12:56:21;;;;;;;14.30;4.40;;;23.50;37.20;;;;;;4949269;28;48186;-68
2022/10/29 12:58:55;;;;;;;13.53;3.67;;;23.40;37.20;;;;;;4983576;28;46321;-68
2022/10/29 13:01:27;;;;;;;15.70;4.30;;;23.40;36.10;;;;;;4966180;28;46479;-68
2022/10/29 13:03:56;;;;;;;12.80;3.10;;;23.50;37.30;;;;;;4965813;28;46359;-68